Bullhead City Fort Mohave, Arizona
Current Conditions -  °F | °C
As of 8:35 PM on Tuesday 21 Oct 2014 (Local Time) from KIFP Reporting Station
Clear Clear  
Wind Chill: 81°   Ceiling: Unl
Heat Index: 81°   Visibility: 10mi
Dew Point: 36°   Wind: 6mph
Humidity: 20%   Direction: 150°SSE
Pressure: 29.8"   Gusts: NA
Location:  35.0298°N, 114.577°W
Report Text: KIFP 220335Z AUTO 15005KT 10SM CLR 27/02 A2980 RMK AO2 PWINO
Loading
Personal Weather Stations






























Interactive Weather Map
Tropical Storm Tracking
New forecast layout! Learn more

10-Day Weather Forecast

Advertisements
Track Severe Weather on mobile